Strona główna
METAR-TAF:

METAR-TAF

Lotnisko :

Chautauqua County/Dunkirk Airport

Dunkirk, Nowy Jork, Stany Zjednoczone

Szerokość geograficzna: 42-29-35N, Długość geograficzna: 079-16-33W, wysokość: 211 m

Aktualna obserwacja pogody

Raport powstał 1 godzina i 4 minut temu, godzina 22:53 UTC
Wiatr 6 kt od południowy zachód
Temperatura 12°C
Wilgotność 54%
Ciśnienie 1016 hPa
Widzialność: 16.1 km
bezchmurnie

METAR: KDKK 042253Z AUTO 22006KT 10SM CLR 12/03 A3001 RMK AO2 SLP166 T01170033

czas: 19:57 (23:57 UTC)


TAF: brakujący

Obserwacja i prognoza pogody dla ponad 4000 lotnisk (raport METAR i TAF).

Dostępne stacje oznaczono żółtymi i czerwonymi punktami na mapie.

Najedź kursorem aby zobaczyć nazwę stacji.

Kliknij aby zobaczyć obserwacje i prognozy pogody.

Aby zmienić mapę: kliknij na zielony przycisk z czarnym krzyżykiem, aby powiększyć; na zielony przycisk z myślnikiem, aby pomniejszyć; na zielone strzałki, aby przejść do map sąsiednich.


METAR-TAF: